Time;durP1;ratioP1;P1;durP2;ratioP2;P2;SDS_P1;SDS_P2;PMS_P1;PMS_P2;Temp;Humidity;BMP_temperature;BMP_pressure;BME280_temperature;BME280_humidity;BME280_pressure;Samples;Min_cycle;Max_cycle;Signal;HPM_P1;HPM_P2
2021/04/18 00:00:40;;;;;;;2.13;1.70;;;8.80;97.70;;;;;;5045193;28;20063;-56
2021/04/18 00:03:06;;;;;;;1.92;1.60;;;8.90;97.80;;;;;;5044979;28;20029;-55
2021/04/18 00:05:32;;;;;;;2.38;1.60;;;9.10;97.40;;;;;;5044963;28;20028;-56
2021/04/18 00:08:04;;;;;;;2.15;1.60;;;9.10;97.30;;;;;;5045832;28;20450;-56
2021/04/18 00:10:39;;;;;;;3.33;1.58;;;9.00;97.40;;;;;;5044960;28;20620;-56
2021/04/18 00:13:09;;;;;;;3.97;1.77;;;9.20;97.20;;;;;;5044940;28;20048;-56
2021/04/18 00:15:38;;;;;;;2.30;1.70;;;9.10;97.30;;;;;;5044554;28;20443;-55
2021/04/18 00:18:05;;;;;;;2.72;1.52;;;8.80;97.90;;;;;;5044948;28;20021;-56
2021/04/18 00:20:30;;;;;;;2.28;1.40;;;8.80;97.90;;;;;;5044485;28;20021;-56
2021/04/18 00:22:57;;;;;;;2.47;1.58;;;9.00;98.00;;;;;;5045587;28;20040;-56
2021/04/18 00:25:22;;;;;;;3.83;2.10;;;9.10;97.60;;;;;;5044889;28;20024;-56
2021/04/18 00:27:48;;;;;;;2.60;1.67;;;9.30;97.40;;;;;;5044873;28;20032;-56
2021/04/18 00:30:16;;;;;;;2.13;1.50;;;8.90;97.80;;;;;;5045097;28;20391;-56
2021/04/18 00:32:42;;;;;;;3.30;1.83;;;8.80;97.90;;;;;;5044299;28;20504;-55
2021/04/18 00:35:11;;;;;;;1.80;1.30;;;8.60;98.20;;;;;;5042706;28;20021;-55
2021/04/18 00:37:41;;;;;;;2.83;1.70;;;8.70;98.30;;;;;;5044735;28;20075;-56
2021/04/18 00:40:15;;;;;;;2.20;1.60;;;8.80;98.10;;;;;;5044928;28;20032;-55
2021/04/18 00:42:41;;;;;;;2.20;1.60;;;8.80;98.00;;;;;;5044129;28;20040;-55
2021/04/18 00:45:09;;;;;;;2.60;1.50;;;8.70;98.30;;;;;;5060131;28;20036;-55
2021/04/18 00:47:39;;;;;;;2.20;1.70;;;8.70;98.40;;;;;;5044178;28;20470;-55
2021/04/18 00:50:05;;;;;;;2.80;1.92;;;8.70;98.40;;;;;;5044689;28;20452;-55
2021/04/18 00:52:31;;;;;;;2.03;1.55;;;8.60;98.50;;;;;;5044348;28;20060;-55
2021/04/18 00:54:56;;;;;;;2.35;1.60;;;8.50;98.70;;;;;;5045464;28;20024;-54
2021/04/18 00:57:22;;;;;;;2.08;1.60;;;8.50;98.70;;;;;;5044507;28;20025;-55
2021/04/18 00:59:49;;;;;;;2.42;1.75;;;8.50;98.70;;;;;;5043765;28;20021;-56
2021/04/18 01:02:16;;;;;;;2.58;1.60;;;8.50;98.70;;;;;;5044463;28;20032;-55
2021/04/18 01:04:41;;;;;;;3.08;1.88;;;8.50;98.80;;;;;;5045893;28;20028;-56
2021/04/18 01:07:08;;;;;;;3.20;1.95;;;8.50;98.80;;;;;;5048515;28;20491;-55
2021/04/18 01:09:34;;;;;;;2.10;1.80;;;8.40;98.80;;;;;;5048195;28;20071;-55
2021/04/18 01:12:00;;;;;;;2.38;1.63;;;8.40;99.00;;;;;;5048239;28;20033;-56
2021/04/18 01:14:26;;;;;;;3.17;1.80;;;8.30;99.10;;;;;;5048720;28;20028;-56
2021/04/18 01:16:52;;;;;;;1.45;1.35;;;8.40;99.00;;;;;;5048100;28;20025;-56
2021/04/18 01:19:18;;;;;;;3.03;1.75;;;8.40;98.90;;;;;;5048483;28;20075;-56
2021/04/18 01:21:44;;;;;;;3.15;1.92;;;8.50;98.70;;;;;;5048215;28;20025;-56
2021/04/18 01:24:09;;;;;;;2.28;1.58;;;8.30;98.90;;;;;;5048489;28;20396;-56
2021/04/18 01:26:36;;;;;;;2.28;1.77;;;8.40;98.90;;;;;;5060526;28;20035;-55
2021/04/18 01:29:04;;;;;;;2.85;1.73;;;8.30;99.00;;;;;;5068492;28;20040;-55
2021/04/18 01:31:31;;;;;;;1.58;1.30;;;8.40;98.90;;;;;;5065492;28;20483;-55
2021/04/18 01:33:57;;;;;;;2.55;1.85;;;8.40;98.80;;;;;;5068210;28;20021;-56
2021/04/18 01:36:23;;;;;;;2.05;1.83;;;8.30;99.10;;;;;;5067653;28;20028;-56
2021/04/18 01:38:49;;;;;;;3.20;1.90;;;8.20;99.30;;;;;;5068043;28;20035;-56
2021/04/18 01:41:15;;;;;;;2.00;1.60;;;8.30;99.40;;;;;;5067908;28;20119;-55
2021/04/18 01:43:41;;;;;;;2.75;1.90;;;8.30;99.30;;;;;;5067449;28;20107;-54
2021/04/18 01:46:07;;;;;;;2.15;1.60;;;8.20;99.40;;;;;;5067909;28;20037;-55
2021/04/18 01:48:34;;;;;;;3.83;1.80;;;8.30;99.20;;;;;;5067437;28;20079;-55
2021/04/18 01:51:07;;;;;;;2.85;1.60;;;8.40;99.10;;;;;;5067529;28;20024;-54
2021/04/18 01:53:33;;;;;;;1.98;1.48;;;8.20;99.40;;;;;;5067728;28;20158;-55
2021/04/18 01:56:00;;;;;;;3.28;1.60;;;8.30;99.50;;;;;;5067853;28;20509;-55
2021/04/18 01:58:27;;;;;;;2.20;1.70;;;8.30;99.30;;;;;;5067731;28;20036;-55
2021/04/18 02:00:53;;;;;;;3.55;1.88;;;8.30;99.40;;;;;;5066812;28;20096;-54
2021/04/18 02:03:19;;;;;;;3.78;2.47;;;8.20;99.50;;;;;;5066817;28;20506;-55
2021/04/18 02:05:45;;;;;;;2.65;2.13;;;8.30;99.60;;;;;;5068000;28;20024;-55
2021/04/18 02:08:11;;;;;;;2.95;2.30;;;8.30;99.80;;;;;;5067511;28;20423;-56
2021/04/18 02:10:36;;;;;;;3.03;2.10;;;8.30;99.80;;;;;;5066961;28;20072;-55
2021/04/18 02:13:02;;;;;;;2.03;1.83;;;8.20;99.90;;;;;;5067124;28;20054;-55
2021/04/18 02:15:28;;;;;;;2.75;2.20;;;8.20;99.90;;;;;;5066309;28;20040;-54
2021/04/18 02:17:55;;;;;;;3.20;1.92;;;8.20;99.80;;;;;;5066511;28;20017;-55
2021/04/18 02:20:20;;;;;;;4.32;2.10;;;8.20;99.80;;;;;;5066902;28;20032;-55
2021/04/18 02:22:46;;;;;;;2.50;1.85;;;8.20;99.80;;;;;;5067658;28;20032;-55
2021/04/18 02:25:13;;;;;;;2.90;2.17;;;8.20;99.90;;;;;;5067372;28;20035;-56
2021/04/18 02:27:41;;;;;;;3.30;2.20;;;8.10;99.80;;;;;;5066932;28;20398;-55
2021/04/18 02:30:09;;;;;;;3.08;2.13;;;8.20;99.90;;;;;;5067008;28;20165;-54
2021/04/18 02:32:34;;;;;;;2.67;2.03;;;8.00;99.90;;;;;;5066597;28;20490;-55
2021/04/18 02:35:02;;;;;;;2.58;1.98;;;8.10;99.90;;;;;;5067183;28;20021;-56
2021/04/18 02:37:28;;;;;;;2.97;2.20;;;8.00;99.90;;;;;;5066887;28;20085;-55
2021/04/18 02:39:53;;;;;;;2.75;1.83;;;8.00;99.90;;;;;;5066584;28;20025;-55
2021/04/18 02:42:19;;;;;;;2.22;1.75;;;8.00;99.90;;;;;;5065244;28;20398;-56
2021/04/18 02:44:45;;;;;;;3.65;1.63;;;8.00;99.90;;;;;;5067196;28;20029;-55
2021/04/18 02:47:10;;;;;;;2.47;1.85;;;7.90;99.90;;;;;;5066599;28;20029;-55
2021/04/18 02:49:36;;;;;;;2.03;1.60;;;7.90;99.90;;;;;;5066184;28;20109;-55
2021/04/18 02:52:02;;;;;;;2.67;1.83;;;7.90;99.90;;;;;;5066177;28;20013;-55
2021/04/18 02:54:28;;;;;;;1.70;1.60;;;7.90;99.90;;;;;;5066197;28;20046;-56
2021/04/18 02:56:53;;;;;;;2.92;1.75;;;7.80;99.90;;;;;;5066681;28;20099;-55
2021/04/18 02:59:20;;;;;;;4.30;2.00;;;7.60;99.90;;;;;;5066417;28;20023;-56
2021/04/18 03:01:46;;;;;;;2.78;1.95;;;7.60;99.90;;;;;;5066894;28;20514;-55
2021/04/18 03:04:11;;;;;;;3.00;1.90;;;7.70;99.90;;;;;;5066063;28;20062;-55
2021/04/18 03:06:37;;;;;;;2.17;1.63;;;7.70;99.90;;;;;;5066251;28;20032;-55
2021/04/18 03:09:03;;;;;;;4.05;1.85;;;7.70;99.90;;;;;;5065941;28;20033;-54
2021/04/18 03:11:29;;;;;;;3.15;2.25;;;7.70;99.90;;;;;;5065774;28;20641;-55
2021/04/18 03:13:55;;;;;;;2.45;1.90;;;7.60;99.90;;;;;;5066112;28;20108;-55
2021/04/18 03:16:20;;;;;;;4.25;2.08;;;7.60;99.90;;;;;;5065472;28;20474;-54
2021/04/18 03:18:46;;;;;;;2.97;2.00;;;7.70;99.90;;;;;;5066066;28;20348;-55
2021/04/18 03:21:12;;;;;;;3.00;2.00;;;7.70;99.90;;;;;;5066456;28;20016;-55
2021/04/18 03:23:37;;;;;;;3.60;2.50;;;7.80;99.90;;;;;;5050747;28;20032;-55
2021/04/18 03:26:04;;;;;;;3.28;2.08;;;7.80;99.90;;;;;;5046312;28;20549;-56
2021/04/18 03:28:31;;;;;;;2.47;2.00;;;7.80;99.90;;;;;;5043611;28;20511;-56
2021/04/18 03:30:57;;;;;;;5.88;3.28;;;7.70;99.90;;;;;;5045981;28;20566;-55
2021/04/18 03:33:23;;;;;;;6.72;3.30;;;7.70;99.90;;;;;;5045129;28;20104;-55
2021/04/18 03:35:49;;;;;;;15.15;6.65;;;7.70;99.90;;;;;;5045895;28;20302;-55
2021/04/18 03:38:14;;;;;;;13.90;6.10;;;7.60;99.90;;;;;;5044907;28;20083;-55
2021/04/18 03:40:40;;;;;;;16.95;6.22;;;7.70;99.90;;;;;;5044813;28;20566;-54
2021/04/18 03:43:06;;;;;;;12.68;5.70;;;7.60;99.90;;;;;;5045469;28;20044;-54
2021/04/18 03:45:31;;;;;;;14.65;6.38;;;7.70;99.90;;;;;;5045350;28;20454;-56
2021/04/18 03:47:58;;;;;;;19.02;7.32;;;7.70;99.90;;;;;;5046105;28;20495;-55
2021/04/18 03:50:24;;;;;;;17.80;7.55;;;7.70;99.90;;;;;;5045679;28;20063;-55
2021/04/18 03:52:49;;;;;;;21.10;8.30;;;7.70;99.90;;;;;;5045238;28;20290;-54
2021/04/18 03:55:16;;;;;;;34.50;13.88;;;7.70;99.90;;;;;;5045426;28;20387;-55
2021/04/18 03:57:43;;;;;;;25.35;10.98;;;7.80;99.90;;;;;;5045059;28;20104;-55
2021/04/18 04:00:09;;;;;;;24.05;10.35;;;7.90;99.90;;;;;;5044731;28;20100;-55
2021/04/18 04:02:35;;;;;;;19.75;8.73;;;7.80;99.90;;;;;;5043161;28;20063;-55
2021/04/18 04:05:02;;;;;;;24.13;9.70;;;7.80;99.90;;;;;;5045404;28;20041;-56
2021/04/18 04:07:27;;;;;;;21.50;9.18;;;7.80;99.90;;;;;;5045600;28;20116;-54
2021/04/18 04:09:53;;;;;;;16.85;8.10;;;7.70;99.90;;;;;;5045342;28;20104;-55
2021/04/18 04:12:19;;;;;;;19.52;8.70;;;7.80;99.90;;;;;;5045150;28;20044;-55
2021/04/18 04:14:44;;;;;;;22.10;9.70;;;7.70;99.90;;;;;;5045003;28;20032;-55
2021/04/18 04:17:10;;;;;;;19.45;9.13;;;7.60;99.90;;;;;;5045211;28;20094;-55
2021/04/18 04:19:37;;;;;;;20.17;8.25;;;7.50;99.90;;;;;;5044772;28;20036;-55
2021/04/18 04:22:02;;;;;;;15.02;7.30;;;7.50;99.90;;;;;;5044849;28;20108;-55
2021/04/18 04:24:29;;;;;;;15.98;7.07;;;7.50;99.90;;;;;;5045504;28;20451;-55
2021/04/18 04:26:54;;;;;;;13.13;6.68;;;7.50;99.90;;;;;;5046061;28;20600;-55
2021/04/18 04:29:20;;;;;;;17.15;8.23;;;7.50;99.90;;;;;;5060167;28;20047;-55
2021/04/18 04:31:46;;;;;;;13.98;6.70;;;7.50;99.90;;;;;;5045051;28;20036;-54
2021/04/18 04:34:13;;;;;;;17.08;6.68;;;7.40;99.90;;;;;;5044587;28;20036;-55
2021/04/18 04:36:38;;;;;;;13.27;6.68;;;7.40;99.90;;;;;;5060290;28;20036;-55
2021/04/18 04:39:06;;;;;;;12.48;5.82;;;7.40;99.90;;;;;;5044419;28;20021;-55
2021/04/18 04:41:32;;;;;;;12.27;5.82;;;7.50;99.90;;;;;;5048412;28;20108;-56
2021/04/18 04:43:57;;;;;;;12.48;6.47;;;7.60;99.90;;;;;;5049649;28;20017;-57
2021/04/18 04:46:24;;;;;;;12.02;6.00;;;7.50;99.90;;;;;;5048701;28;20036;-57
2021/04/18 04:48:50;;;;;;;9.75;5.03;;;7.50;99.90;;;;;;5048962;28;20091;-58
2021/04/18 04:51:15;;;;;;;15.65;6.60;;;7.40;99.90;;;;;;5049245;28;20032;-57
2021/04/18 04:53:41;;;;;;;14.45;6.28;;;7.40;99.90;;;;;;5048848;28;20491;-58
2021/04/18 04:56:08;;;;;;;16.80;7.38;;;7.50;99.90;;;;;;5049049;28;20511;-57
2021/04/18 04:58:34;;;;;;;17.27;8.00;;;7.60;99.90;;;;;;5048569;28;20059;-58
2021/04/18 05:01:00;;;;;;;13.18;6.50;;;7.60;99.90;;;;;;5048906;28;20029;-58
2021/04/18 05:03:27;;;;;;;12.02;6.05;;;7.50;99.90;;;;;;5047999;28;20033;-58
2021/04/18 05:05:54;;;;;;;10.65;6.50;;;7.50;99.90;;;;;;5048610;28;20155;-58
2021/04/18 05:08:20;;;;;;;8.52;5.13;;;7.60;99.90;;;;;;5048801;28;20057;-58
2021/04/18 05:10:47;;;;;;;5.68;4.05;;;7.60;99.90;;;;;;5048274;28;20033;-58
2021/04/18 05:13:13;;;;;;;4.07;3.30;;;7.60;99.90;;;;;;5063530;28;20021;-58
2021/04/18 05:15:39;;;;;;;4.50;3.22;;;7.60;99.90;;;;;;5047813;28;20021;-58
2021/04/18 05:18:06;;;;;;;6.40;3.70;;;7.50;99.90;;;;;;5048344;28;20483;-58
2021/04/18 05:20:32;;;;;;;4.97;3.25;;;7.70;99.90;;;;;;5048056;28;20411;-58
2021/04/18 05:22:58;;;;;;;3.67;3.20;;;7.70;99.90;;;;;;5047794;28;20037;-58
2021/04/18 05:25:24;;;;;;;4.72;3.10;;;7.70;99.90;;;;;;5048433;28;20029;-58
2021/04/18 05:27:49;;;;;;;3.35;2.40;;;7.70;99.90;;;;;;5047365;28;20041;-58
2021/04/18 05:30:15;;;;;;;4.00;2.60;;;7.70;99.90;;;;;;5048395;28;20033;-58
2021/04/18 05:32:42;;;;;;;4.13;2.60;;;7.80;99.90;;;;;;5047064;28;20035;-57
2021/04/18 05:35:09;;;;;;;5.25;2.92;;;7.80;99.90;;;;;;5047779;28;20487;-58
2021/04/18 05:37:36;;;;;;;3.70;2.40;;;7.70;99.90;;;;;;5046805;28;20036;-58
2021/04/18 05:40:03;;;;;;;3.58;2.45;;;7.80;99.90;;;;;;5047556;28;20032;-57
2021/04/18 05:42:29;;;;;;;4.13;2.55;;;7.80;99.90;;;;;;5046883;28;20079;-57
2021/04/18 05:44:54;;;;;;;3.38;2.50;;;7.90;99.90;;;;;;5048184;28;20118;-58
2021/04/18 05:47:20;;;;;;;3.80;2.78;;;7.80;99.90;;;;;;5047217;28;20466;-58
2021/04/18 05:49:46;;;;;;;3.85;2.42;;;7.90;99.90;;;;;;5055531;28;20021;-57
2021/04/18 05:52:13;;;;;;;4.03;2.80;;;7.90;99.90;;;;;;5063170;28;20036;-58
2021/04/18 05:54:38;;;;;;;2.90;2.42;;;7.90;99.90;;;;;;5070537;28;20017;-58
2021/04/18 05:57:04;;;;;;;3.00;2.30;;;8.00;99.90;;;;;;5067599;28;20446;-57
2021/04/18 05:59:30;;;;;;;3.28;2.40;;;7.90;99.90;;;;;;5068192;28;20025;-57
2021/04/18 06:01:56;;;;;;;5.15;3.10;;;8.00;99.90;;;;;;5062825;28;20064;-58
2021/04/18 06:04:21;;;;;;;3.78;2.70;;;8.00;99.90;;;;;;5068078;28;20025;-57
2021/04/18 06:06:47;;;;;;;5.50;2.63;;;8.00;99.90;;;;;;5069144;28;20082;-57
2021/04/18 06:09:12;;;;;;;4.63;3.08;;;8.00;99.90;;;;;;5068517;28;20082;-57
2021/04/18 06:11:39;;;;;;;4.25;2.97;;;8.10;99.90;;;;;;5064403;28;20479;-57
2021/04/18 06:14:05;;;;;;;3.35;2.22;;;8.00;99.90;;;;;;5056204;28;20710;-57
2021/04/18 06:16:30;;;;;;;3.28;2.47;;;8.00;99.90;;;;;;5066629;28;20024;-58
2021/04/18 06:18:57;;;;;;;3.75;2.60;;;8.10;99.90;;;;;;5066631;28;20024;-58
2021/04/18 06:21:24;;;;;;;3.60;2.60;;;8.10;99.90;;;;;;5067461;28;20106;-58
2021/04/18 06:23:49;;;;;;;4.88;2.90;;;8.10;99.90;;;;;;5066321;28;20055;-57
2021/04/18 06:26:16;;;;;;;3.13;2.38;;;8.00;99.90;;;;;;5066981;28;20068;-57
2021/04/18 06:28:42;;;;;;;3.50;2.13;;;8.00;99.90;;;;;;5066862;28;20036;-57
2021/04/18 06:31:07;;;;;;;4.57;2.80;;;8.20;99.90;;;;;;5066355;28;20411;-58
2021/04/18 06:33:33;;;;;;;4.80;3.35;;;8.30;99.90;;;;;;5065542;28;20403;-57
2021/04/18 06:35:59;;;;;;;3.88;2.55;;;8.30;99.90;;;;;;5066989;28;20036;-58
2021/04/18 06:38:24;;;;;;;4.15;2.38;;;8.30;99.90;;;;;;5065739;28;20514;-58
2021/04/18 06:40:52;;;;;;;4.25;2.55;;;8.20;99.90;;;;;;5065113;28;20025;-57
2021/04/18 06:43:21;;;;;;;3.45;2.60;;;8.10;99.90;;;;;;5066283;28;20035;-58
2021/04/18 06:45:53;;;;;;;2.97;2.35;;;8.20;99.90;;;;;;5066173;28;20040;-58
2021/04/18 06:48:19;;;;;;;4.78;2.25;;;8.20;99.90;;;;;;5064170;28;20055;-57
2021/04/18 06:50:46;;;;;;;4.20;2.45;;;8.20;99.90;;;;;;5068564;28;20139;-57
2021/04/18 06:53:12;;;;;;;3.33;2.45;;;8.10;99.90;;;;;;5066601;28;20025;-57
2021/04/18 06:55:39;;;;;;;4.78;2.58;;;8.20;99.90;;;;;;5067597;28;20104;-58
2021/04/18 06:58:05;;;;;;;3.13;2.47;;;8.20;99.90;;;;;;5064372;28;20607;-57
2021/04/18 07:00:32;;;;;;;5.63;2.40;;;8.40;99.90;;;;;;5056170;28;20029;-57
2021/04/18 07:03:14;;;;;;;4.35;2.70;;;8.40;99.90;;;;;;5069153;28;20547;-57
2021/04/18 07:05:42;;;;;;;2.53;2.17;;;8.10;99.90;;;;;;5072504;28;20043;-57
2021/04/18 07:08:21;;;;;;;2.40;2.00;;;8.00;99.90;;;;;;5067392;28;20093;-57
2021/04/18 07:10:47;;;;;;;3.17;2.47;;;8.20;99.90;;;;;;5066135;28;20039;-57
2021/04/18 07:13:16;;;;;;;3.47;2.33;;;8.40;99.90;;;;;;5066423;28;20123;-58
2021/04/18 07:15:44;;;;;;;2.72;2.15;;;8.20;99.90;;;;;;5066343;28;20102;-57
2021/04/18 07:18:33;;;;;;;3.25;2.40;;;8.40;99.90;;;;;;5067290;28;20035;-57
2021/04/18 07:20:59;;;;;;;3.90;2.15;;;8.60;99.90;;;;;;5059506;28;20392;-57
2021/04/18 07:23:35;;;;;;;3.67;2.03;;;8.50;99.90;;;;;;5047589;28;20044;-58
2021/04/18 07:26:23;;;;;;;3.67;2.15;;;8.70;99.90;;;;;;5054756;28;20431;-57
2021/04/18 07:28:50;;;;;;;3.17;2.20;;;8.80;99.90;;;;;;5066573;28;20036;-57
2021/04/18 07:31:33;;;;;;;3.83;2.67;;;8.80;99.90;;;;;;5066779;28;20126;-57
2021/04/18 07:34:07;;;;;;;3.33;2.40;;;8.90;99.90;;;;;;5066403;28;20078;-57
2021/04/18 07:36:33;;;;;;;;;;;9.00;99.90;;;;;;5066332;28;20602;-58
2021/04/18 07:38:59;;;;;;;5.50;3.75;;;8.90;99.90;;;;;;5066852;28;19928;-57
2021/04/18 07:41:26;;;;;;;4.70;3.10;;;8.80;99.90;;;;;;5061658;28;20483;-57
2021/04/18 07:43:53;;;;;;;5.20;2.88;;;8.70;99.90;;;;;;5063672;28;20113;-57
2021/04/18 07:46:21;;;;;;;3.13;2.15;;;8.90;99.90;;;;;;5066683;28;20059;-57
2021/04/18 07:48:47;;;;;;;2.97;2.08;;;9.30;99.90;;;;;;5066802;28;20028;-57
2021/04/18 07:51:14;;;;;;;3.50;2.05;;;9.50;99.90;;;;;;5055669;28;20474;-57
2021/04/18 07:53:41;;;;;;;2.72;1.80;;;9.50;99.90;;;;;;5055634;28;20115;-57
2021/04/18 07:56:11;;;;;;;3.15;2.03;;;9.60;99.90;;;;;;5064852;28;20419;-57
2021/04/18 07:58:39;;;;;;;3.00;1.88;;;9.80;99.90;;;;;;5060160;28;20024;-57
2021/04/18 08:01:07;;;;;;;2.97;1.90;;;9.80;99.90;;;;;;5065359;28;20402;-57
2021/04/18 08:03:33;;;;;;;5.38;2.78;;;9.90;99.90;;;;;;5065639;28;20025;-58
2021/04/18 08:05:59;;;;;;;4.97;2.75;;;9.60;99.90;;;;;;5063548;28;20020;-57
2021/04/18 08:08:40;;;;;;;5.10;2.88;;;9.50;99.90;;;;;;5065765;28;20024;-59
2021/04/18 08:11:10;;;;;;;6.55;2.75;;;9.40;99.90;;;;;;5063028;28;20477;-60
2021/04/18 08:13:47;;;;;;;6.63;3.78;;;9.50;99.90;;;;;;5064699;28;20031;-57
2021/04/18 08:16:14;;;;;;;7.07;3.50;;;9.20;99.90;;;;;;5064597;28;20042;-57
2021/04/18 08:18:44;;;;;;;4.30;2.55;;;9.30;99.90;;;;;;5065363;28;20042;-57
2021/04/18 08:21:42;;;;;;;5.40;2.80;;;9.50;99.90;;;;;;5061414;28;20028;-57
2021/04/18 08:24:17;;;;;;;4.53;2.47;;;9.70;99.90;;;;;;5049685;28;20017;-57
2021/04/18 08:27:16;;;;;;;5.22;2.60;;;9.80;99.90;;;;;;5062110;28;20115;-57
2021/04/18 08:30:02;;;;;;;4.28;2.58;;;9.80;99.90;;;;;;5065349;28;20478;-57
2021/04/18 08:32:46;;;;;;;3.53;2.20;;;10.00;99.90;;;;;;5063815;28;20025;-57
2021/04/18 08:35:14;;;;;;;4.18;2.55;;;10.00;99.90;;;;;;5064594;28;20099;-57
2021/04/18 08:37:41;;;;;;;4.55;2.72;;;10.10;99.90;;;;;;5064537;28;20036;-56
2021/04/18 08:40:07;;;;;;;4.97;2.75;;;10.10;99.90;;;;;;5062177;28;20406;-56
2021/04/18 08:42:34;;;;;;;9.00;3.58;;;10.30;99.90;;;;;;5059123;28;20060;-57
2021/04/18 08:45:00;;;;;;;5.90;2.97;;;10.20;99.90;;;;;;5064646;28;20069;-57
2021/04/18 08:47:28;;;;;;;8.55;4.05;;;10.10;99.90;;;;;;5063451;28;20036;-57
2021/04/18 08:50:17;;;;;;;17.77;7.43;;;10.00;99.90;;;;;;5064358;28;20021;-57
2021/04/18 08:52:42;;;;;;;17.20;7.22;;;9.80;99.90;;;;;;5057699;28;20028;-57
2021/04/18 08:55:11;;;;;;;10.02;5.50;;;9.70;99.90;;;;;;5064697;28;20054;-57
2021/04/18 08:57:37;;;;;;;7.70;4.75;;;9.70;99.90;;;;;;5062338;28;20021;-57
2021/04/18 09:00:12;;;;;;;8.52;5.25;;;9.70;99.90;;;;;;5050351;28;20522;-57
2021/04/18 09:02:38;;;;;;;9.38;4.57;;;9.70;99.90;;;;;;5045644;28;20040;-58
2021/04/18 09:05:07;;;;;;;7.85;3.53;;;9.90;99.90;;;;;;5064758;28;20037;-58
2021/04/18 09:07:36;;;;;;;5.60;3.50;;;9.90;99.90;;;;;;5061107;28;20033;-58
2021/04/18 09:10:08;;;;;;;4.72;2.92;;;10.00;99.90;;;;;;5053001;28;20249;-57
2021/04/18 09:12:34;;;;;;;5.68;3.28;;;10.00;99.90;;;;;;5064950;28;20070;-57
2021/04/18 09:15:01;;;;;;;3.78;2.40;;;10.00;99.90;;;;;;5065392;28;20021;-57
2021/04/18 09:17:31;;;;;;;6.40;3.17;;;10.10;99.90;;;;;;5062274;28;20055;-58
2021/04/18 09:20:03;;;;;;;7.20;3.88;;;10.10;99.90;;;;;;5058953;28;20102;-57
2021/04/18 09:22:30;;;;;;;3.78;2.58;;;10.10;99.90;;;;;;5063633;28;20039;-58
2021/04/18 09:25:00;;;;;;;4.18;2.33;;;10.40;99.90;;;;;;5065717;28;20043;-58
2021/04/18 09:27:47;;;;;;;5.05;2.88;;;10.60;99.70;;;;;;5063158;28;20438;-58
2021/04/18 09:30:21;;;;;;;3.47;2.38;;;10.50;99.60;;;;;;5068925;28;20032;-57
2021/04/18 09:32:55;;;;;;;3.72;2.45;;;10.60;99.60;;;;;;5067919;28;20043;-57
2021/04/18 09:35:21;;;;;;;;;;;10.50;99.50;;;;;;5069253;28;20021;-57
2021/04/18 09:38:01;;;;;;;4.28;2.72;;;10.70;99.60;;;;;;5064676;28;19916;-57
2021/04/18 09:40:35;;;;;;;3.20;2.03;;;10.90;99.10;;;;;;5067602;28;20414;-58
2021/04/18 09:43:05;;;;;;;4.82;2.58;;;11.10;99.40;;;;;;5067921;28;20542;-57
2021/04/18 09:45:33;;;;;;;5.35;3.40;;;11.20;98.80;;;;;;5068315;28;20028;-57
2021/04/18 09:48:14;;;;;;;4.45;2.90;;;11.20;97.90;;;;;;5059750;28;20558;-58
2021/04/18 09:50:41;;;;;;;5.05;2.92;;;11.30;98.70;;;;;;5053855;28;20036;-58
2021/04/18 09:53:18;;;;;;;4.10;2.65;;;11.30;97.50;;;;;;5048036;28;20021;-58
2021/04/18 09:55:51;;;;;;;3.40;2.40;;;11.50;97.90;;;;;;5067465;28;20052;-58
2021/04/18 09:58:30;;;;;;;3.90;2.22;;;11.60;97.30;;;;;;5066849;28;20090;-58
2021/04/18 10:00:56;;;;;;;2.38;1.73;;;11.60;97.60;;;;;;5064138;28;20533;-58
2021/04/18 10:03:34;;;;;;;2.25;1.85;;;11.70;97.30;;;;;;5060554;28;20820;-58
2021/04/18 10:06:00;;;;;;;2.53;1.90;;;11.90;97.20;;;;;;5067981;28;20032;-58
2021/04/18 10:08:29;;;;;;;2.63;1.90;;;11.80;96.70;;;;;;5064189;28;20024;-58
2021/04/18 10:10:57;;;;;;;2.35;1.70;;;11.90;96.50;;;;;;5068106;28;20040;-58
2021/04/18 10:13:56;;;;;;;1.90;1.50;;;12.00;96.50;;;;;;5066932;28;20041;-58
2021/04/18 10:16:40;;;;;;;2.60;1.75;;;12.10;96.10;;;;;;5062089;28;20032;-58
2021/04/18 10:19:18;;;;;;;8.50;3.83;;;12.20;96.20;;;;;;5068009;28;20016;-59
2021/04/18 10:22:05;;;;;;;2.95;2.28;;;12.00;96.00;;;;;;5068411;28;20037;-58
2021/04/18 10:24:32;;;;;;;2.55;1.98;;;12.30;96.60;;;;;;5067613;28;20065;-58
2021/04/18 10:27:01;;;;;;;3.03;2.10;;;12.30;96.00;;;;;;5069498;28;20036;-58
2021/04/18 10:29:27;;;;;;;3.80;2.30;;;12.30;95.30;;;;;;5068523;28;20020;-58
2021/04/18 10:31:53;;;;;;;2.10;1.73;;;12.20;95.00;;;;;;5069011;28;20044;-58
2021/04/18 10:34:19;;;;;;;2.78;2.10;;;12.20;95.00;;;;;;5069092;28;20021;-58
2021/04/18 10:36:46;;;;;;;2.83;1.77;;;12.10;94.30;;;;;;5068146;28;20037;-59
2021/04/18 10:39:14;;;;;;;2.00;1.77;;;12.20;94.10;;;;;;5047604;28;20054;-58
2021/04/18 10:41:41;;;;;;;4.35;2.20;;;12.00;93.00;;;;;;5057427;28;20417;-58
2021/04/18 10:44:07;;;;;;;3.65;2.72;;;12.00;93.00;;;;;;5065671;28;20525;-58
2021/04/18 10:46:33;;;;;;;2.80;2.20;;;12.10;93.30;;;;;;5068494;28;20036;-58
2021/04/18 10:48:58;;;;;;;4.15;2.45;;;12.20;93.20;;;;;;5069503;28;20027;-58
2021/04/18 10:51:24;;;;;;;5.15;3.63;;;12.00;92.70;;;;;;5053816;28;20399;-58
2021/04/18 10:53:49;;;;;;;5.72;2.95;;;11.90;92.70;;;;;;5061979;28;20075;-58
2021/04/18 10:56:15;;;;;;;4.20;2.60;;;12.10;93.60;;;;;;5051401;28;20395;-58
2021/04/18 10:58:41;;;;;;;2.63;1.90;;;12.60;93.60;;;;;;5049941;28;20425;-58
2021/04/18 11:01:07;;;;;;;2.65;2.25;;;12.50;92.80;;;;;;5064422;28;20098;-58
2021/04/18 11:03:32;;;;;;;4.05;1.80;;;12.40;93.10;;;;;;5053081;28;20036;-58
2021/04/18 11:05:58;;;;;;;4.47;2.65;;;12.30;92.70;;;;;;5067237;28;20025;-57
2021/04/18 11:08:24;;;;;;;2.75;2.05;;;12.10;92.30;;;;;;5068303;28;20024;-58
2021/04/18 11:10:50;;;;;;;2.25;1.92;;;12.40;92.70;;;;;;5068373;28;20672;-57
2021/04/18 11:13:16;;;;;;;3.03;2.40;;;12.60;92.90;;;;;;5068085;28;20494;-58
2021/04/18 11:15:42;;;;;;;4.07;2.38;;;12.80;93.00;;;;;;5065989;28;20027;-58
2021/04/18 11:18:10;;;;;;;2.63;2.03;;;13.10;92.20;;;;;;5066336;28;20028;-58
2021/04/18 11:20:36;;;;;;;2.60;1.92;;;13.10;92.00;;;;;;5062708;28;20477;-58
2021/04/18 11:23:03;;;;;;;1.85;1.45;;;13.00;92.60;;;;;;5069220;28;20047;-58
2021/04/18 11:25:29;;;;;;;2.40;1.60;;;13.00;92.40;;;;;;5058287;28;20036;-58
2021/04/18 11:27:54;;;;;;;2.00;1.58;;;13.00;92.70;;;;;;5047717;28;20028;-58
2021/04/18 11:30:20;;;;;;;4.32;2.78;;;13.00;92.80;;;;;;5065376;28;20101;-57
2021/04/18 11:32:46;;;;;;;7.32;4.38;;;12.70;92.20;;;;;;5068179;28;20020;-57
2021/04/18 11:35:12;;;;;;;17.63;8.43;;;12.50;92.30;;;;;;5063838;28;20889;-58
2021/04/18 11:37:39;;;;;;;13.93;6.93;;;12.30;92.40;;;;;;5066906;28;20029;-57
2021/04/18 11:40:06;;;;;;;10.82;5.50;;;12.50;92.30;;;;;;5067853;28;20122;-58
2021/04/18 11:42:32;;;;;;;8.60;4.45;;;12.70;92.30;;;;;;5078476;28;20506;-58
2021/04/18 11:45:01;;;;;;;11.98;5.63;;;12.90;92.70;;;;;;5066233;28;20029;-57
2021/04/18 11:47:27;;;;;;;24.20;10.55;;;13.00;92.00;;;;;;5065024;28;20736;-57
2021/04/18 11:49:53;;;;;;;16.80;8.68;;;12.80;92.20;;;;;;5065057;28;20064;-57
2021/04/18 11:52:19;;;;;;;14.05;6.88;;;12.60;91.70;;;;;;5067111;28;20059;-57
2021/04/18 11:54:44;;;;;;;17.92;8.48;;;12.50;92.10;;;;;;5065865;28;20036;-57
2021/04/18 11:57:10;;;;;;;17.27;8.15;;;12.60;92.10;;;;;;5065778;28;20074;-57
2021/04/18 11:59:37;;;;;;;15.25;7.43;;;12.40;91.70;;;;;;5064292;28;20082;-57
2021/04/18 12:02:03;;;;;;;12.13;6.15;;;12.50;91.70;;;;;;5061021;28;20695;-57
2021/04/18 12:04:29;;;;;;;7.45;3.95;;;12.80;92.60;;;;;;5046635;28;20044;-57
2021/04/18 12:06:55;;;;;;;5.85;3.30;;;12.80;92.00;;;;;;5062396;28;20029;-57
2021/04/18 12:09:21;;;;;;;4.88;3.00;;;12.80;91.90;;;;;;5046714;28;20044;-57
2021/04/18 12:11:47;;;;;;;4.85;3.00;;;12.90;91.70;;;;;;5058124;28;20437;-57
2021/04/18 12:14:13;;;;;;;3.83;2.60;;;12.80;92.10;;;;;;5064341;28;20455;-57
2021/04/18 12:16:39;;;;;;;3.72;2.10;;;13.00;91.80;;;;;;5046080;28;20060;-57
2021/04/18 12:19:05;;;;;;;3.58;2.70;;;13.00;91.80;;;;;;5047407;28;20147;-57
2021/04/18 12:21:31;;;;;;;4.78;2.95;;;13.00;91.60;;;;;;5048806;28;20446;-57
2021/04/18 12:23:56;;;;;;;3.22;2.17;;;12.80;91.60;;;;;;5066391;28;20024;-57
2021/04/18 12:26:24;;;;;;;3.83;2.10;;;12.80;91.60;;;;;;5065486;28;20020;-57
2021/04/18 12:28:50;;;;;;;2.58;1.90;;;13.10;91.90;;;;;;5066861;28;20028;-57
2021/04/18 12:31:17;;;;;;;1.58;1.33;;;13.50;91.20;;;;;;5066608;28;20021;-57
2021/04/18 12:33:43;;;;;;;4.35;2.95;;;13.90;91.20;;;;;;5066587;28;20039;-57
2021/04/18 12:36:09;;;;;;;5.60;3.50;;;14.00;91.00;;;;;;5065242;28;20032;-57
2021/04/18 12:38:36;;;;;;;4.97;3.08;;;13.80;91.10;;;;;;5066154;28;20043;-57
2021/04/18 12:41:01;;;;;;;3.88;2.67;;;13.70;91.20;;;;;;5066835;28;20044;-57
2021/04/18 12:43:27;;;;;;;3.60;2.40;;;13.50;90.90;;;;;;5066950;28;20527;-57
2021/04/18 12:45:53;;;;;;;2.67;2.00;;;13.50;91.20;;;;;;5066804;28;20024;-57
2021/04/18 12:48:19;;;;;;;7.40;4.63;;;13.50;90.90;;;;;;5064730;28;20033;-57
2021/04/18 12:50:44;;;;;;;7.85;5.22;;;13.50;90.80;;;;;;5066227;28;20036;-57
2021/04/18 12:53:10;;;;;;;9.13;5.40;;;13.50;91.10;;;;;;5066289;28;20064;-57
2021/04/18 12:55:36;;;;;;;5.50;3.90;;;13.20;90.90;;;;;;5066413;28;20024;-57